sensor_id;sensor_type;location;lat;lon;timestamp;pressure;altitude;pressure_sealevel;temperature;humidity
53041;BME280;39326;42.650;23.248;2023-05-23T00:00:54;92440.31;;;9.61;87.89
53041;BME280;39326;42.650;23.248;2023-05-23T00:03:23;92463.91;;;9.77;88.22
53041;BME280;39326;42.650;23.248;2023-05-23T00:05:49;92452.47;;;9.76;87.93
53041;BME280;39326;42.650;23.248;2023-05-23T00:08:16;92445.63;;;9.82;87.84
53041;BME280;39326;42.650;23.248;2023-05-23T00:10:42;92447.56;;;9.86;87.63
53041;BME280;39326;42.650;23.248;2023-05-23T00:13:07;92435.75;;;9.87;87.51
53041;BME280;39326;42.650;23.248;2023-05-23T00:15:34;92435.75;;;9.87;87.08
53041;BME280;39326;42.650;23.248;2023-05-23T00:18:02;92439.19;;;9.87;87.61
53041;BME280;39326;42.650;23.248;2023-05-23T00:20:28;92438.78;;;9.89;87.12
53041;BME280;39326;42.650;23.248;2023-05-23T00:22:55;92441.09;;;9.87;87.30
53041;BME280;39326;42.650;23.248;2023-05-23T00:25:23;92446.03;;;9.85;87.18
53041;BME280;39326;42.650;23.248;2023-05-23T00:27:50;92450.59;;;9.84;87.34
53041;BME280;39326;42.650;23.248;2023-05-23T00:30:16;92441.84;;;9.84;87.28
53041;BME280;39326;42.650;23.248;2023-05-23T00:32:41;92441.09;;;9.83;87.32
53041;BME280;39326;42.650;23.248;2023-05-23T00:35:07;92439.56;;;9.82;87.70
53041;BME280;39326;42.650;23.248;2023-05-23T00:37:33;92439.56;;;9.82;87.24
53041;BME280;39326;42.650;23.248;2023-05-23T00:39:59;92446.03;;;9.81;87.45
53041;BME280;39326;42.650;23.248;2023-05-23T00:42:25;92445.28;;;9.80;87.21
53041;BME280;39326;42.650;23.248;2023-05-23T00:44:51;92433.84;;;9.73;87.53
53041;BME280;39326;42.650;23.248;2023-05-23T00:47:17;92446.41;;;9.69;87.91
53041;BME280;39326;42.650;23.248;2023-05-23T00:49:43;92438.41;;;9.69;87.56
53041;BME280;39326;42.650;23.248;2023-05-23T00:52:09;92443.00;;;9.72;87.60
53041;BME280;39326;42.650;23.248;2023-05-23T00:54:35;92438.41;;;9.65;87.97
53041;BME280;39326;42.650;23.248;2023-05-23T00:57:01;92443.72;;;9.62;88.25
53041;BME280;39326;42.650;23.248;2023-05-23T00:59:28;92439.19;;;9.66;88.04
53041;BME280;39326;42.650;23.248;2023-05-23T01:01:55;92440.72;;;9.70;87.55
53041;BME280;39326;42.650;23.248;2023-05-23T01:04:22;92445.25;;;9.70;87.76
53041;BME280;39326;42.650;23.248;2023-05-23T01:06:56;92444.50;;;9.66;87.63
53041;BME280;39326;42.650;23.248;2023-05-23T01:09:24;92445.66;;;9.65;87.82
53041;BME280;39326;42.650;23.248;2023-05-23T01:14:37;92436.88;;;9.61;87.92
53041;BME280;39326;42.650;23.248;2023-05-23T01:17:12;92440.31;;;9.54;88.59
53041;BME280;39326;42.650;23.248;2023-05-23T01:22:20;92456.25;;;9.47;88.83
53041;BME280;39326;42.650;23.248;2023-05-23T01:24:53;92444.47;;;9.48;88.61
53041;BME280;39326;42.650;23.248;2023-05-23T01:30:11;92446.38;;;9.51;88.26
53041;BME280;39326;42.650;23.248;2023-05-23T01:32:38;92444.84;;;9.50;88.89
53041;BME280;39326;42.650;23.248;2023-05-23T01:35:04;92443.75;;;9.58;88.66
53041;BME280;39326;42.650;23.248;2023-05-23T01:37:30;92435.75;;;9.62;88.31
53041;BME280;39326;42.650;23.248;2023-05-23T01:39:56;92433.44;;;9.57;88.38
53041;BME280;39326;42.650;23.248;2023-05-23T01:42:22;92430.03;;;9.49;88.49
53041;BME280;39326;42.650;23.248;2023-05-23T01:44:48;92433.44;;;9.46;88.35
53041;BME280;39326;42.650;23.248;2023-05-23T01:47:14;92430.38;;;9.37;88.74
53041;BME280;39326;42.650;23.248;2023-05-23T01:49:40;92428.09;;;9.39;88.57
53041;BME280;39326;42.650;23.248;2023-05-23T01:52:09;92434.19;;;9.39;88.73
53041;BME280;39326;42.650;23.248;2023-05-23T01:54:36;92427.72;;;9.40;88.35
53041;BME280;39326;42.650;23.248;2023-05-23T01:57:04;92431.13;;;9.37;88.61
53041;BME280;39326;42.650;23.248;2023-05-23T01:59:30;92425.84;;;9.41;87.86
53041;BME280;39326;42.650;23.248;2023-05-23T02:01:56;92424.66;;;9.38;88.27
53041;BME280;39326;42.650;23.248;2023-05-23T02:04:22;92416.72;;;9.45;87.79
53041;BME280;39326;42.650;23.248;2023-05-23T02:06:47;92420.91;;;9.46;87.37
53041;BME280;39326;42.650;23.248;2023-05-23T02:09:13;92420.50;;;9.41;87.81
53041;BME280;39326;42.650;23.248;2023-05-23T02:11:39;92426.22;;;9.39;87.92
53041;BME280;39326;42.650;23.248;2023-05-23T02:14:05;92425.41;;;9.32;87.72
53041;BME280;39326;42.650;23.248;2023-05-23T02:16:32;92423.53;;;9.36;87.85
53041;BME280;39326;42.650;23.248;2023-05-23T02:18:57;92429.22;;;9.27;88.01
53041;BME280;39326;42.650;23.248;2023-05-23T02:21:24;92425.78;;;9.23;88.14
53041;BME280;39326;42.650;23.248;2023-05-23T02:23:49;92429.22;;;9.23;88.19
53041;BME280;39326;42.650;23.248;2023-05-23T02:26:15;92418.94;;;9.18;88.27
53041;BME280;39326;42.650;23.248;2023-05-23T02:28:41;92423.09;;;9.19;88.63
53041;BME280;39326;42.650;23.248;2023-05-23T02:31:07;92425.44;;;9.28;87.71
53041;BME280;39326;42.650;23.248;2023-05-23T02:33:33;92423.91;;;9.27;87.89
53041;BME280;39326;42.650;23.248;2023-05-23T02:35:59;92413.25;;;9.27;88.29
53041;BME280;39326;42.650;23.248;2023-05-23T02:38:25;92402.97;;;9.25;88.40
53041;BME280;39326;42.650;23.248;2023-05-23T02:40:52;92404.13;;;9.21;88.24
53041;BME280;39326;42.650;23.248;2023-05-23T02:43:21;92401.06;;;9.15;88.87
53041;BME280;39326;42.650;23.248;2023-05-23T02:45:48;92403.38;;;9.20;88.35
53041;BME280;39326;42.650;23.248;2023-05-23T02:48:14;92402.22;;;9.18;88.36
53041;BME280;39326;42.650;23.248;2023-05-23T02:50:40;92398.78;;;9.17;88.69
53041;BME280;39326;42.650;23.248;2023-05-23T02:53:06;92411.72;;;9.19;88.45
53041;BME280;39326;42.650;23.248;2023-05-23T02:55:32;92406.38;;;9.19;88.72
53041;BME280;39326;42.650;23.248;2023-05-23T02:57:58;92405.63;;;9.18;88.21
53041;BME280;39326;42.650;23.248;2023-05-23T03:00:24;92411.34;;;9.20;88.27
53041;BME280;39326;42.650;23.248;2023-05-23T03:02:50;92407.94;;;9.27;88.58
53041;BME280;39326;42.650;23.248;2023-05-23T03:05:17;92408.34;;;9.33;88.54
53041;BME280;39326;42.650;23.248;2023-05-23T03:07:43;92409.84;;;9.30;89.01
53041;BME280;39326;42.650;23.248;2023-05-23T03:10:09;92418.59;;;9.27;88.98
53041;BME280;39326;42.650;23.248;2023-05-23T03:12:35;92418.19;;;9.28;89.10
53041;BME280;39326;42.650;23.248;2023-05-23T03:15:02;92428.84;;;9.32;88.51
53041;BME280;39326;42.650;23.248;2023-05-23T03:17:28;92415.53;;;9.28;88.94
53041;BME280;39326;42.650;23.248;2023-05-23T03:19:53;92412.47;;;9.23;88.68
53041;BME280;39326;42.650;23.248;2023-05-23T03:22:19;92413.59;;;9.18;89.51
53041;BME280;39326;42.650;23.248;2023-05-23T03:24:45;92408.69;;;9.20;89.70
53041;BME280;39326;42.650;23.248;2023-05-23T03:27:11;92413.25;;;9.27;89.49
53041;BME280;39326;42.650;23.248;2023-05-23T03:29:36;92413.25;;;9.31;89.52
53041;BME280;39326;42.650;23.248;2023-05-23T03:32:03;92417.06;;;9.37;89.51
53041;BME280;39326;42.650;23.248;2023-05-23T03:34:29;92419.34;;;9.35;90.19
53041;BME280;39326;42.650;23.248;2023-05-23T03:36:54;92419.75;;;9.40;90.14
53041;BME280;39326;42.650;23.248;2023-05-23T03:39:20;92423.91;;;9.45;90.09
53041;BME280;39326;42.650;23.248;2023-05-23T03:41:47;92431.56;;;9.53;90.32
53041;BME280;39326;42.650;23.248;2023-05-23T03:44:13;92430.03;;;9.60;90.17
53041;BME280;39326;42.650;23.248;2023-05-23T03:46:39;92435.75;;;9.62;90.31
53041;BME280;39326;42.650;23.248;2023-05-23T03:49:05;92431.94;;;9.70;90.13
53041;BME280;39326;42.650;23.248;2023-05-23T03:51:31;92436.88;;;9.75;90.57
53041;BME280;39326;42.650;23.248;2023-05-23T03:53:57;92437.66;;;9.79;90.34
53041;BME280;39326;42.650;23.248;2023-05-23T03:56:23;92436.53;;;9.87;89.90
53041;BME280;39326;42.650;23.248;2023-05-23T03:58:49;92431.19;;;9.94;89.68
53041;BME280;39326;42.650;23.248;2023-05-23T04:01:15;92437.31;;;10.02;89.80
53041;BME280;39326;42.650;23.248;2023-05-23T04:03:41;92438.84;;;10.10;89.66
53041;BME280;39326;42.650;23.248;2023-05-23T04:06:08;92443.38;;;10.13;89.47
53041;BME280;39326;42.650;23.248;2023-05-23T04:08:33;92446.06;;;10.17;89.27
53041;BME280;39326;42.650;23.248;2023-05-23T04:11:00;92435.41;;;10.17;89.52
53041;BME280;39326;42.650;23.248;2023-05-23T04:13:26;92430.06;;;10.20;89.50
53041;BME280;39326;42.650;23.248;2023-05-23T04:15:52;92419.78;;;10.19;89.53
53041;BME280;39326;42.650;23.248;2023-05-23T04:18:21;92429.66;;;10.32;89.33
53041;BME280;39326;42.650;23.248;2023-05-23T04:20:47;92435.38;;;10.34;89.43
53041;BME280;39326;42.650;23.248;2023-05-23T04:23:14;92444.91;;;10.35;89.40
53041;BME280;39326;42.650;23.248;2023-05-23T04:25:40;92433.47;;;10.31;89.72
53041;BME280;39326;42.650;23.248;2023-05-23T04:28:06;92430.06;;;10.34;89.74
53041;BME280;39326;42.650;23.248;2023-05-23T04:30:34;92428.53;;;10.33;89.65
53041;BME280;39326;42.650;23.248;2023-05-23T04:33:00;92428.91;;;10.32;89.93
53041;BME280;39326;42.650;23.248;2023-05-23T04:35:26;92425.47;;;10.39;89.88
53041;BME280;39326;42.650;23.248;2023-05-23T04:37:55;92423.56;;;10.43;89.70
53041;BME280;39326;42.650;23.248;2023-05-23T04:40:24;92420.13;;;10.49;89.14
53041;BME280;39326;42.650;23.248;2023-05-23T04:42:50;92421.25;;;10.48;89.11
53041;BME280;39326;42.650;23.248;2023-05-23T04:45:18;92429.25;;;10.55;89.09
53041;BME280;39326;42.650;23.248;2023-05-23T04:47:45;92432.66;;;10.59;89.27
53041;BME280;39326;42.650;23.248;2023-05-23T04:50:11;92440.28;;;10.65;89.22
53041;BME280;39326;42.650;23.248;2023-05-23T04:52:37;92446.34;;;10.69;89.47
53041;BME280;39326;42.650;23.248;2023-05-23T04:55:03;92442.94;;;10.65;90.08
53041;BME280;39326;42.650;23.248;2023-05-23T04:57:28;92444.13;;;10.46;91.48
53041;BME280;39326;42.650;23.248;2023-05-23T04:59:54;92450.16;;;10.64;90.21
53041;BME280;39326;42.650;23.248;2023-05-23T05:02:21;92446.75;;;10.67;90.20
53041;BME280;39326;42.650;23.248;2023-05-23T05:04:47;92459.28;;;10.84;89.62
53041;BME280;39326;42.650;23.248;2023-05-23T05:07:12;92461.59;;;10.68;91.13
53041;BME280;39326;42.650;23.248;2023-05-23T05:09:38;92451.28;;;10.74;91.20
53041;BME280;39326;42.650;23.248;2023-05-23T05:12:04;92448.25;;;10.68;91.58
53041;BME280;39326;42.650;23.248;2023-05-23T05:14:30;92460.41;;;10.87;91.16
53041;BME280;39326;42.650;23.248;2023-05-23T05:16:57;92453.06;;;11.12;90.27
53041;BME280;39326;42.650;23.248;2023-05-23T05:19:23;92454.50;;;11.31;89.70
53041;BME280;39326;42.650;23.248;2023-05-23T05:21:49;92461.69;;;11.45;89.32
53041;BME280;39326;42.650;23.248;2023-05-23T05:24:15;92465.53;;;11.33;90.08
53041;BME280;39326;42.650;23.248;2023-05-23T05:26:41;92465.16;;;11.42;89.75
53041;BME280;39326;42.650;23.248;2023-05-23T05:29:07;92461.00;;;11.30;90.35
53041;BME280;39326;42.650;23.248;2023-05-23T05:31:33;92456.09;;;11.22;91.20
53041;BME280;39326;42.650;23.248;2023-05-23T05:34:00;92451.09;;;11.24;90.94
53041;BME280;39326;42.650;23.248;2023-05-23T05:36:26;92449.91;;;11.42;90.04
53041;BME280;39326;42.650;23.248;2023-05-23T05:38:52;92459.38;;;11.51;90.02
53041;BME280;39326;42.650;23.248;2023-05-23T05:41:17;92459.13;;;11.20;91.54
53041;BME280;39326;42.650;23.248;2023-05-23T05:43:43;92462.88;;;11.37;91.01
53041;BME280;39326;42.650;23.248;2023-05-23T05:46:10;92461.00;;;11.27;92.33
53041;BME280;39326;42.650;23.248;2023-05-23T05:48:35;92469.75;;;11.31;92.43
53041;BME280;39326;42.650;23.248;2023-05-23T05:51:01;92471.28;;;11.32;92.99
53041;BME280;39326;42.650;23.248;2023-05-23T05:53:27;92479.28;;;11.32;93.48
53041;BME280;39326;42.650;23.248;2023-05-23T05:55:53;92469.72;;;11.45;92.74
53041;BME280;39326;42.650;23.248;2023-05-23T05:58:19;92480.03;;;11.36;93.09
53041;BME280;39326;42.650;23.248;2023-05-23T06:00:47;92472.31;;;11.59;92.95
53041;BME280;39326;42.650;23.248;2023-05-23T06:03:13;92472.91;;;11.88;92.22
53041;BME280;39326;42.650;23.248;2023-05-23T06:05:40;92483.34;;;12.20;91.09
53041;BME280;39326;42.650;23.248;2023-05-23T06:08:06;92473.63;;;11.92;91.97
53041;BME280;39326;42.650;23.248;2023-05-23T06:10:32;92469.41;;;11.99;91.96
53041;BME280;39326;42.650;23.248;2023-05-23T06:12:59;92469.56;;;12.26;90.93
53041;BME280;39326;42.650;23.248;2023-05-23T06:15:25;92465.91;;;12.54;89.91
53041;BME280;39326;42.650;23.248;2023-05-23T06:17:51;92472.06;;;12.88;88.87
53041;BME280;39326;42.650;23.248;2023-05-23T06:20:17;92482.50;;;13.13;87.84
53041;BME280;39326;42.650;23.248;2023-05-23T06:22:43;92473.53;;;13.27;86.82
53041;BME280;39326;42.650;23.248;2023-05-23T06:25:09;92482.28;;;13.00;87.79
53041;BME280;39326;42.650;23.248;2023-05-23T06:27:36;92481.75;;;13.13;87.50
53041;BME280;39326;42.650;23.248;2023-05-23T06:30:03;92481.16;;;13.32;86.65
53041;BME280;39326;42.650;23.248;2023-05-23T06:32:29;92483.63;;;13.46;85.65
53041;BME280;39326;42.650;23.248;2023-05-23T06:34:55;92477.28;;;13.67;84.23
53041;BME280;39326;42.650;23.248;2023-05-23T06:37:21;92487.56;;;13.69;83.73
53041;BME280;39326;42.650;23.248;2023-05-23T06:39:47;92483.44;;;13.91;82.81
53041;BME280;39326;42.650;23.248;2023-05-23T06:42:14;92486.72;;;14.06;82.71
53041;BME280;39326;42.650;23.248;2023-05-23T06:44:40;92478.13;;;14.15;82.65
53041;BME280;39326;42.650;23.248;2023-05-23T06:47:06;92474.13;;;14.26;82.34
53041;BME280;39326;42.650;23.248;2023-05-23T06:49:32;92467.94;;;14.53;81.28
53041;BME280;39326;42.650;23.248;2023-05-23T06:51:58;92477.69;;;14.66;80.98
53041;BME280;39326;42.650;23.248;2023-05-23T06:54:24;92476.38;;;14.55;81.36
53041;BME280;39326;42.650;23.248;2023-05-23T06:56:49;92465.88;;;14.84;80.93
53041;BME280;39326;42.650;23.248;2023-05-23T06:59:15;92468.00;;;14.96;80.79
53041;BME280;39326;42.650;23.248;2023-05-23T07:01:41;92456.50;;;14.96;80.20
53041;BME280;39326;42.650;23.248;2023-05-23T07:04:06;92467.94;;;15.19;79.91
53041;BME280;39326;42.650;23.248;2023-05-23T07:06:33;92459.78;;;15.03;79.14
53041;BME280;39326;42.650;23.248;2023-05-23T07:08:59;92461.66;;;15.06;80.10
53041;BME280;39326;42.650;23.248;2023-05-23T07:11:25;92460.97;;;15.22;80.22
53041;BME280;39326;42.650;23.248;2023-05-23T07:13:50;92462.41;;;15.27;79.13
53041;BME280;39326;42.650;23.248;2023-05-23T07:16:16;92463.38;;;15.16;78.47
53041;BME280;39326;42.650;23.248;2023-05-23T07:18:41;92457.03;;;15.27;78.38
53041;BME280;39326;42.650;23.248;2023-05-23T07:21:07;92449.28;;;15.12;77.90
53041;BME280;39326;42.650;23.248;2023-05-23T07:23:32;92456.34;;;15.23;77.87
53041;BME280;39326;42.650;23.248;2023-05-23T07:26:01;92449.00;;;15.27;78.87
53041;BME280;39326;42.650;23.248;2023-05-23T07:28:27;92447.34;;;15.33;78.07
53041;BME280;39326;42.650;23.248;2023-05-23T07:30:53;92444.56;;;15.56;78.57
53041;BME280;39326;42.650;23.248;2023-05-23T07:33:19;92446.66;;;15.65;78.20
53041;BME280;39326;42.650;23.248;2023-05-23T07:35:45;92439.41;;;15.82;78.22
53041;BME280;39326;42.650;23.248;2023-05-23T07:38:10;92446.75;;;15.97;77.33
53041;BME280;39326;42.650;23.248;2023-05-23T07:40:36;92446.34;;;15.99;76.85
53041;BME280;39326;42.650;23.248;2023-05-23T07:43:02;92445.00;;;16.07;77.11
53041;BME280;39326;42.650;23.248;2023-05-23T07:45:28;92447.00;;;16.03;76.87
53041;BME280;39326;42.650;23.248;2023-05-23T07:47:53;92442.56;;;16.13;77.32
53041;BME280;39326;42.650;23.248;2023-05-23T07:50:19;92443.31;;;16.13;76.31
53041;BME280;39326;42.650;23.248;2023-05-23T07:52:45;92446.78;;;16.14;76.98
53041;BME280;39326;42.650;23.248;2023-05-23T07:55:10;92447.25;;;16.41;77.22
53041;BME280;39326;42.650;23.248;2023-05-23T07:57:36;92449.50;;;16.75;76.24
53041;BME280;39326;42.650;23.248;2023-05-23T08:00:02;92439.47;;;16.92;74.99
53041;BME280;39326;42.650;23.248;2023-05-23T08:02:27;92440.09;;;17.13;72.95
53041;BME280;39326;42.650;23.248;2023-05-23T08:04:53;92442.41;;;17.27;72.99
53041;BME280;39326;42.650;23.248;2023-05-23T08:07:18;92445.97;;;17.37;74.43
53041;BME280;39326;42.650;23.248;2023-05-23T08:09:44;92432.41;;;17.40;72.75
53041;BME280;39326;42.650;23.248;2023-05-23T08:12:09;92441.06;;;17.73;71.51
53041;BME280;39326;42.650;23.248;2023-05-23T08:14:35;92430.81;;;17.68;69.64
53041;BME280;39326;42.650;23.248;2023-05-23T08:17:01;92438.41;;;17.86;69.73
53041;BME280;39326;42.650;23.248;2023-05-23T08:19:27;92434.50;;;17.87;69.12
53041;BME280;39326;42.650;23.248;2023-05-23T08:21:53;92443.22;;;17.66;69.04
53041;BME280;39326;42.650;23.248;2023-05-23T08:24:19;92437.53;;;17.76;69.48
53041;BME280;39326;42.650;23.248;2023-05-23T08:26:45;92449.06;;;17.77;68.92
53041;BME280;39326;42.650;23.248;2023-05-23T08:29:11;92441.66;;;18.19;66.71
53041;BME280;39326;42.650;23.248;2023-05-23T08:31:37;92437.75;;;18.33;67.80
53041;BME280;39326;42.650;23.248;2023-05-23T08:34:02;92437.41;;;18.31;66.72
53041;BME280;39326;42.650;23.248;2023-05-23T08:36:28;92433.41;;;18.35;67.16
53041;BME280;39326;42.650;23.248;2023-05-23T08:38:54;92440.19;;;18.65;67.46
53041;BME280;39326;42.650;23.248;2023-05-23T08:41:23;92437.25;;;18.60;67.51
53041;BME280;39326;42.650;23.248;2023-05-23T08:43:49;92433.44;;;18.83;65.43
53041;BME280;39326;42.650;23.248;2023-05-23T08:46:15;92430.00;;;19.04;65.74
53041;BME280;39326;42.650;23.248;2023-05-23T08:48:42;92432.66;;;19.17;64.12
53041;BME280;39326;42.650;23.248;2023-05-23T08:51:13;92429.91;;;19.30;63.25
53041;BME280;39326;42.650;23.248;2023-05-23T08:53:41;92419.56;;;19.37;62.72
53041;BME280;39326;42.650;23.248;2023-05-23T08:56:11;92411.63;;;19.43;61.40
53041;BME280;39326;42.650;23.248;2023-05-23T08:58:38;92417.19;;;19.39;61.91
53041;BME280;39326;42.650;23.248;2023-05-23T09:01:07;92422.50;;;19.74;61.46
53041;BME280;39326;42.650;23.248;2023-05-23T09:03:34;92423.34;;;19.40;61.05
53041;BME280;39326;42.650;23.248;2023-05-23T09:06:05;92423.44;;;19.49;60.47
53041;BME280;39326;42.650;23.248;2023-05-23T09:08:32;92419.50;;;19.72;60.41
53041;BME280;39326;42.650;23.248;2023-05-23T09:10:57;92412.53;;;19.62;59.78
53041;BME280;39326;42.650;23.248;2023-05-23T09:13:23;92423.53;;;19.67;60.58
53041;BME280;39326;42.650;23.248;2023-05-23T09:18:25;92416.38;;;20.14;57.92
53041;BME280;39326;42.650;23.248;2023-05-23T09:20:51;92416.06;;;20.12;53.47
53041;BME280;39326;42.650;23.248;2023-05-23T09:23:16;92413.69;;;20.23;53.59
53041;BME280;39326;42.650;23.248;2023-05-23T09:25:46;92404.56;;;20.39;54.04
53041;BME280;39326;42.650;23.248;2023-05-23T09:28:11;92418.97;;;20.26;52.30
53041;BME280;39326;42.650;23.248;2023-05-23T09:30:37;92413.97;;;20.25;52.22
53041;BME280;39326;42.650;23.248;2023-05-23T09:33:03;92415.56;;;20.35;51.30
53041;BME280;39326;42.650;23.248;2023-05-23T09:35:29;92402.19;;;20.50;48.88
53041;BME280;39326;42.650;23.248;2023-05-23T09:37:56;92395.13;;;20.80;46.86
53041;BME280;39326;42.650;23.248;2023-05-23T09:40:30;92404.03;;;20.99;46.93
53041;BME280;39326;42.650;23.248;2023-05-23T09:43:01;92399.81;;;20.98;44.74
53041;BME280;39326;42.650;23.248;2023-05-23T09:45:31;92401.03;;;20.97;44.00
53041;BME280;39326;42.650;23.248;2023-05-23T09:47:56;92400.88;;;20.91;43.95
53041;BME280;39326;42.650;23.248;2023-05-23T09:50:23;92391.09;;;21.12;45.38
53041;BME280;39326;42.650;23.248;2023-05-23T09:52:49;92391.09;;;21.12;43.82
53041;BME280;39326;42.650;23.248;2023-05-23T09:55:15;92385.03;;;21.35;43.00
53041;BME280;39326;42.650;23.248;2023-05-23T09:57:42;92387.41;;;21.61;43.22
53041;BME280;39326;42.650;23.248;2023-05-23T10:00:08;92394.50;;;21.58;43.52
53041;BME280;39326;42.650;23.248;2023-05-23T10:03:12;92381.38;;;21.57;43.53
53041;BME280;39326;42.650;23.248;2023-05-23T10:05:48;92386.06;;;21.47;43.14
53041;BME280;39326;42.650;23.248;2023-05-23T10:08:18;92387.34;;;21.79;43.03
53041;BME280;39326;42.650;23.248;2023-05-23T10:14:05;92391.19;;;22.06;41.09
53041;BME280;39326;42.650;23.248;2023-05-23T10:19:22;92392.88;;;22.27;41.08
53041;BME280;39326;42.650;23.248;2023-05-23T10:21:56;92384.38;;;22.10;41.85
53041;BME280;39326;42.650;23.248;2023-05-23T10:24:23;92396.03;;;22.02;41.89
53041;BME280;39326;42.650;23.248;2023-05-23T10:26:50;92380.91;;;22.10;41.32
53041;BME280;39326;42.650;23.248;2023-05-23T10:29:16;92384.13;;;21.99;39.98
53041;BME280;39326;42.650;23.248;2023-05-23T10:31:42;92383.38;;;21.99;40.35
53041;BME280;39326;42.650;23.248;2023-05-23T10:34:22;92379.00;;;22.25;40.92
53041;BME280;39326;42.650;23.248;2023-05-23T10:37:05;92379.41;;;22.33;39.39
53041;BME280;39326;42.650;23.248;2023-05-23T10:45:21;92369.81;;;21.89;39.82
53041;BME280;39326;42.650;23.248;2023-05-23T10:47:48;92379.25;;;22.36;39.86
53041;BME280;39326;42.650;23.248;2023-05-23T10:50:16;92376.28;;;22.58;39.11
53041;BME280;39326;42.650;23.248;2023-05-23T10:52:54;92367.31;;;22.67;39.31
53041;BME280;39326;42.650;23.248;2023-05-23T10:55:19;92361.88;;;23.06;38.59
53041;BME280;39326;42.650;23.248;2023-05-23T10:57:44;92364.00;;;23.02;38.30
53041;BME280;39326;42.650;23.248;2023-05-23T11:00:14;92377.34;;;23.14;38.50
53041;BME280;39326;42.650;23.248;2023-05-23T11:03:03;92372.66;;;23.15;37.99
53041;BME280;39326;42.650;23.248;2023-05-23T11:05:28;92356.44;;;23.06;39.64
53041;BME280;39326;42.650;23.248;2023-05-23T11:10:59;92360.25;;;23.38;39.71
53041;BME280;39326;42.650;23.248;2023-05-23T11:13:40;92354.69;;;23.76;39.12
53041;BME280;39326;42.650;23.248;2023-05-23T11:21:49;92346.50;;;23.91;37.43
53041;BME280;39326;42.650;23.248;2023-05-23T11:24:16;92347.63;;;23.99;37.00
53041;BME280;39326;42.650;23.248;2023-05-23T11:26:57;92338.44;;;23.67;35.63
53041;BME280;39326;42.650;23.248;2023-05-23T11:29:28;92350.41;;;23.02;35.94
53041;BME280;39326;42.650;23.248;2023-05-23T11:31:55;92342.56;;;23.04;37.69
53041;BME280;39326;42.650;23.248;2023-05-23T11:34:24;92344.31;;;23.21;37.13
53041;BME280;39326;42.650;23.248;2023-05-23T11:36:54;92346.44;;;23.41;37.11
53041;BME280;39326;42.650;23.248;2023-05-23T11:39:20;92341.75;;;23.57;37.42
53041;BME280;39326;42.650;23.248;2023-05-23T11:41:57;92332.91;;;23.62;36.44
53041;BME280;39326;42.650;23.248;2023-05-23T11:44:22;92338.34;;;23.76;36.07
53041;BME280;39326;42.650;23.248;2023-05-23T11:47:01;92329.31;;;23.85;35.55
53041;BME280;39326;42.650;23.248;2023-05-23T11:49:31;92342.84;;;23.80;35.21
53041;BME280;39326;42.650;23.248;2023-05-23T11:51:57;92332.59;;;23.89;34.99
53041;BME280;39326;42.650;23.248;2023-05-23T11:54:25;92330.38;;;23.58;36.05
53041;BME280;39326;42.650;23.248;2023-05-23T11:56:51;92333.69;;;23.47;35.45
53041;BME280;39326;42.650;23.248;2023-05-23T11:59:16;92325.41;;;23.42;34.96
53041;BME280;39326;42.650;23.248;2023-05-23T12:01:42;92326.63;;;23.56;37.00
53041;BME280;39326;42.650;23.248;2023-05-23T12:04:09;92325.94;;;23.75;35.83
53041;BME280;39326;42.650;23.248;2023-05-23T12:06:37;92315.69;;;23.85;35.83
53041;BME280;39326;42.650;23.248;2023-05-23T12:09:03;92323.88;;;24.20;35.97
53041;BME280;39326;42.650;23.248;2023-05-23T12:11:33;92322.41;;;24.40;34.84
53041;BME280;39326;42.650;23.248;2023-05-23T12:13:59;92323.19;;;24.81;34.27
53041;BME280;39326;42.650;23.248;2023-05-23T12:16:30;92316.28;;;24.86;32.62
53041;BME280;39326;42.650;23.248;2023-05-23T12:18:56;92302.09;;;24.81;33.09
53041;BME280;39326;42.650;23.248;2023-05-23T12:21:25;92291.53;;;24.69;33.30
53041;BME280;39326;42.650;23.248;2023-05-23T12:23:50;92301.72;;;24.94;33.77
53041;BME280;39326;42.650;23.248;2023-05-23T12:26:16;92297.66;;;24.84;33.65
53041;BME280;39326;42.650;23.248;2023-05-23T12:28:43;92294.94;;;24.64;33.73
53041;BME280;39326;42.650;23.248;2023-05-23T12:31:20;92292.00;;;24.06;33.07
53041;BME280;39326;42.650;23.248;2023-05-23T12:33:47;92292.88;;;23.97;34.79
53041;BME280;39326;42.650;23.248;2023-05-23T12:36:26;92290.91;;;24.18;34.75
53041;BME280;39326;42.650;23.248;2023-05-23T12:39:01;92297.56;;;24.73;33.35
53041;BME280;39326;42.650;23.248;2023-05-23T12:41:27;92281.94;;;24.99;33.98
53041;BME280;39326;42.650;23.248;2023-05-23T12:43:54;92277.22;;;24.74;33.62
53041;BME280;39326;42.650;23.248;2023-05-23T12:46:22;92292.88;;;24.59;32.66
53041;BME280;39326;42.650;23.248;2023-05-23T12:48:48;92295.03;;;24.69;32.77
53041;BME280;39326;42.650;23.248;2023-05-23T12:51:13;92291.31;;;24.52;33.78
53041;BME280;39326;42.650;23.248;2023-05-23T12:53:39;92284.66;;;24.73;34.37
53041;BME280;39326;42.650;23.248;2023-05-23T12:56:05;92282.00;;;24.79;34.86
53041;BME280;39326;42.650;23.248;2023-05-23T12:58:30;92272.72;;;24.97;33.61
53041;BME280;39326;42.650;23.248;2023-05-23T13:00:57;92268.56;;;24.75;33.69
53041;BME280;39326;42.650;23.248;2023-05-23T13:03:22;92268.25;;;24.94;33.72
53041;BME280;39326;42.650;23.248;2023-05-23T13:05:48;92269.50;;;24.52;33.70
53041;BME280;39326;42.650;23.248;2023-05-23T13:08:14;92269.50;;;24.72;34.54
53041;BME280;39326;42.650;23.248;2023-05-23T13:10:39;92268.69;;;24.66;33.48
53041;BME280;39326;42.650;23.248;2023-05-23T13:13:05;92274.28;;;24.37;34.57
53041;BME280;39326;42.650;23.248;2023-05-23T13:15:30;92270.25;;;24.52;33.56
53041;BME280;39326;42.650;23.248;2023-05-23T13:17:56;92265.59;;;24.59;32.59
53041;BME280;39326;42.650;23.248;2023-05-23T13:20:22;92268.25;;;24.53;33.33
53041;BME280;39326;42.650;23.248;2023-05-23T13:22:47;92270.19;;;24.47;32.12